sensor_id;sensor_type;location;lat;lon;timestamp;temperature;humidity
28773;DHT22;15925;51.222;5.678;2023-07-20T00:01:22;18.50;99.90
28773;DHT22;15925;51.222;5.678;2023-07-20T00:03:47;18.50;99.90
28773;DHT22;15925;51.222;5.678;2023-07-20T00:06:24;18.50;99.90
28773;DHT22;15925;51.222;5.678;2023-07-20T00:08:53;18.50;99.90
28773;DHT22;15925;51.222;5.678;2023-07-20T00:11:20;18.50;99.90
28773;DHT22;15925;51.222;5.678;2023-07-20T00:13:46;18.50;99.90
28773;DHT22;15925;51.222;5.678;2023-07-20T00:16:12;18.20;99.90
28773;DHT22;15925;51.222;5.678;2023-07-20T00:18:37;18.30;99.90
28773;DHT22;15925;51.222;5.678;2023-07-20T00:21:03;18.40;99.90
28773;DHT22;15925;51.222;5.678;2023-07-20T00:23:29;18.30;99.90
28773;DHT22;15925;51.222;5.678;2023-07-20T00:25:55;18.20;99.90
28773;DHT22;15925;51.222;5.678;2023-07-20T00:28:21;17.90;99.90
28773;DHT22;15925;51.222;5.678;2023-07-20T00:30:48;17.90;99.90
28773;DHT22;15925;51.222;5.678;2023-07-20T00:33:17;17.80;99.90
28773;DHT22;15925;51.222;5.678;2023-07-20T00:35:43;17.70;99.90
28773;DHT22;15925;51.222;5.678;2023-07-20T00:38:09;17.70;99.90
28773;DHT22;15925;51.222;5.678;2023-07-20T00:40:39;17.60;99.90
28773;DHT22;15925;51.222;5.678;2023-07-20T00:43:05;17.80;99.90
28773;DHT22;15925;51.222;5.678;2023-07-20T00:45:32;17.70;99.90
28773;DHT22;15925;51.222;5.678;2023-07-20T00:47:59;17.80;99.90
28773;DHT22;15925;51.222;5.678;2023-07-20T00:50:25;17.80;99.90
28773;DHT22;15925;51.222;5.678;2023-07-20T00:52:51;17.90;99.90
28773;DHT22;15925;51.222;5.678;2023-07-20T00:55:19;18.00;99.90
28773;DHT22;15925;51.222;5.678;2023-07-20T00:57:45;18.00;99.90
28773;DHT22;15925;51.222;5.678;2023-07-20T01:00:12;18.00;99.90
28773;DHT22;15925;51.222;5.678;2023-07-20T01:02:38;18.00;99.90
28773;DHT22;15925;51.222;5.678;2023-07-20T01:05:05;18.00;99.90
28773;DHT22;15925;51.222;5.678;2023-07-20T01:07:38;18.00;99.90
28773;DHT22;15925;51.222;5.678;2023-07-20T01:10:25;18.00;99.90
28773;DHT22;15925;51.222;5.678;2023-07-20T01:12:53;18.00;99.90
28773;DHT22;15925;51.222;5.678;2023-07-20T01:15:20;17.90;99.90
28773;DHT22;15925;51.222;5.678;2023-07-20T01:17:46;17.70;99.90
28773;DHT22;15925;51.222;5.678;2023-07-20T01:20:18;17.60;99.90
28773;DHT22;15925;51.222;5.678;2023-07-20T01:33:41;16.90;99.90
28773;DHT22;15925;51.222;5.678;2023-07-20T01:36:08;17.10;99.90
28773;DHT22;15925;51.222;5.678;2023-07-20T01:38:36;16.90;99.90
28773;DHT22;15925;51.222;5.678;2023-07-20T01:41:03;16.90;99.90
28773;DHT22;15925;51.222;5.678;2023-07-20T01:43:29;17.00;99.90
28773;DHT22;15925;51.222;5.678;2023-07-20T01:45:55;16.80;99.90
28773;DHT22;15925;51.222;5.678;2023-07-20T01:48:21;17.10;99.90
28773;DHT22;15925;51.222;5.678;2023-07-20T01:50:46;17.20;99.90
28773;DHT22;15925;51.222;5.678;2023-07-20T01:53:12;17.00;99.90
28773;DHT22;15925;51.222;5.678;2023-07-20T01:55:38;17.10;99.90
28773;DHT22;15925;51.222;5.678;2023-07-20T01:58:04;17.20;99.90
28773;DHT22;15925;51.222;5.678;2023-07-20T02:00:31;16.90;99.90
28773;DHT22;15925;51.222;5.678;2023-07-20T02:02:57;17.10;99.90
28773;DHT22;15925;51.222;5.678;2023-07-20T02:05:23;17.10;99.90
28773;DHT22;15925;51.222;5.678;2023-07-20T02:07:49;17.00;99.90
28773;DHT22;15925;51.222;5.678;2023-07-20T02:10:19;16.80;99.90
28773;DHT22;15925;51.222;5.678;2023-07-20T02:12:44;16.80;99.90
28773;DHT22;15925;51.222;5.678;2023-07-20T02:15:10;16.70;99.90
28773;DHT22;15925;51.222;5.678;2023-07-20T02:17:36;16.60;99.90
28773;DHT22;15925;51.222;5.678;2023-07-20T02:20:03;16.80;99.90
28773;DHT22;15925;51.222;5.678;2023-07-20T02:22:29;16.70;99.90
28773;DHT22;15925;51.222;5.678;2023-07-20T02:24:55;16.70;99.90
28773;DHT22;15925;51.222;5.678;2023-07-20T02:27:20;16.60;99.90
28773;DHT22;15925;51.222;5.678;2023-07-20T02:29:46;16.60;99.90
28773;DHT22;15925;51.222;5.678;2023-07-20T02:32:12;16.60;99.90
28773;DHT22;15925;51.222;5.678;2023-07-20T02:34:38;16.60;99.90
28773;DHT22;15925;51.222;5.678;2023-07-20T02:37:04;16.60;99.90
28773;DHT22;15925;51.222;5.678;2023-07-20T02:39:30;16.60;99.90
28773;DHT22;15925;51.222;5.678;2023-07-20T02:41:56;16.80;99.90
28773;DHT22;15925;51.222;5.678;2023-07-20T02:44:22;16.90;99.90
28773;DHT22;15925;51.222;5.678;2023-07-20T02:46:48;17.00;99.90
28773;DHT22;15925;51.222;5.678;2023-07-20T02:49:17;16.90;99.90
28773;DHT22;15925;51.222;5.678;2023-07-20T02:51:43;16.70;99.90
28773;DHT22;15925;51.222;5.678;2023-07-20T02:54:09;16.70;99.90
28773;DHT22;15925;51.222;5.678;2023-07-20T02:56:35;16.60;99.90
28773;DHT22;15925;51.222;5.678;2023-07-20T02:59:03;16.60;99.90
28773;DHT22;15925;51.222;5.678;2023-07-20T03:01:29;16.60;99.90
28773;DHT22;15925;51.222;5.678;2023-07-20T03:03:56;16.60;99.90
28773;DHT22;15925;51.222;5.678;2023-07-20T03:06:21;16.50;99.90
28773;DHT22;15925;51.222;5.678;2023-07-20T03:08:47;16.60;99.90
28773;DHT22;15925;51.222;5.678;2023-07-20T03:11:15;16.50;99.90
28773;DHT22;15925;51.222;5.678;2023-07-20T03:13:41;16.40;99.90
28773;DHT22;15925;51.222;5.678;2023-07-20T03:16:08;16.40;99.90
28773;DHT22;15925;51.222;5.678;2023-07-20T03:18:40;16.40;99.90
28773;DHT22;15925;51.222;5.678;2023-07-20T03:21:08;16.30;99.90
28773;DHT22;15925;51.222;5.678;2023-07-20T03:23:37;16.30;99.90
28773;DHT22;15925;51.222;5.678;2023-07-20T03:26:03;16.30;99.90
28773;DHT22;15925;51.222;5.678;2023-07-20T03:28:30;16.30;99.90
28773;DHT22;15925;51.222;5.678;2023-07-20T03:30:57;16.30;99.90
28773;DHT22;15925;51.222;5.678;2023-07-20T03:33:28;16.30;99.90
28773;DHT22;15925;51.222;5.678;2023-07-20T03:35:54;16.30;99.90
28773;DHT22;15925;51.222;5.678;2023-07-20T03:38:22;16.30;99.90
28773;DHT22;15925;51.222;5.678;2023-07-20T03:43:20;16.30;99.90
28773;DHT22;15925;51.222;5.678;2023-07-20T03:45:46;16.40;99.90
28773;DHT22;15925;51.222;5.678;2023-07-20T03:48:15;16.40;99.90
28773;DHT22;15925;51.222;5.678;2023-07-20T03:50:40;16.40;99.90
28773;DHT22;15925;51.222;5.678;2023-07-20T03:53:06;16.40;99.90
28773;DHT22;15925;51.222;5.678;2023-07-20T03:55:33;16.50;99.90
28773;DHT22;15925;51.222;5.678;2023-07-20T03:57:58;16.60;99.90
28773;DHT22;15925;51.222;5.678;2023-07-20T04:00:24;16.60;99.90
28773;DHT22;15925;51.222;5.678;2023-07-20T04:02:51;16.60;99.90
28773;DHT22;15925;51.222;5.678;2023-07-20T04:05:16;16.60;99.90
28773;DHT22;15925;51.222;5.678;2023-07-20T04:07:42;16.50;99.90
28773;DHT22;15925;51.222;5.678;2023-07-20T04:10:09;16.60;99.90
28773;DHT22;15925;51.222;5.678;2023-07-20T04:12:35;16.80;99.90
28773;DHT22;15925;51.222;5.678;2023-07-20T04:15:01;16.80;99.90
28773;DHT22;15925;51.222;5.678;2023-07-20T04:17:28;16.80;99.90
28773;DHT22;15925;51.222;5.678;2023-07-20T04:19:54;16.70;99.90
28773;DHT22;15925;51.222;5.678;2023-07-20T04:22:20;16.70;99.90
28773;DHT22;15925;51.222;5.678;2023-07-20T04:24:46;16.90;99.90
28773;DHT22;15925;51.222;5.678;2023-07-20T04:27:12;17.00;99.90
28773;DHT22;15925;51.222;5.678;2023-07-20T04:29:38;17.00;99.90
28773;DHT22;15925;51.222;5.678;2023-07-20T04:32:04;17.00;99.90
28773;DHT22;15925;51.222;5.678;2023-07-20T04:34:30;16.90;99.90
28773;DHT22;15925;51.222;5.678;2023-07-20T04:36:57;16.90;99.90
28773;DHT22;15925;51.222;5.678;2023-07-20T04:39:24;17.00;99.90
28773;DHT22;15925;51.222;5.678;2023-07-20T04:41:50;17.10;99.90
28773;DHT22;15925;51.222;5.678;2023-07-20T04:44:17;17.20;99.90
28773;DHT22;15925;51.222;5.678;2023-07-20T04:46:43;17.10;99.90
28773;DHT22;15925;51.222;5.678;2023-07-20T04:49:08;17.20;99.90
28773;DHT22;15925;51.222;5.678;2023-07-20T04:51:39;17.30;99.90
28773;DHT22;15925;51.222;5.678;2023-07-20T04:54:05;17.30;99.90
28773;DHT22;15925;51.222;5.678;2023-07-20T04:56:34;17.30;99.90
28773;DHT22;15925;51.222;5.678;2023-07-20T04:59:02;17.10;99.90
28773;DHT22;15925;51.222;5.678;2023-07-20T05:01:28;17.20;99.90
28773;DHT22;15925;51.222;5.678;2023-07-20T05:03:54;17.20;99.90
28773;DHT22;15925;51.222;5.678;2023-07-20T05:06:20;17.20;99.90
28773;DHT22;15925;51.222;5.678;2023-07-20T05:08:46;17.10;99.90
28773;DHT22;15925;51.222;5.678;2023-07-20T05:11:12;17.10;99.90
28773;DHT22;15925;51.222;5.678;2023-07-20T05:13:38;17.10;99.90
28773;DHT22;15925;51.222;5.678;2023-07-20T05:16:04;17.10;99.90
28773;DHT22;15925;51.222;5.678;2023-07-20T05:18:31;17.10;99.90
28773;DHT22;15925;51.222;5.678;2023-07-20T05:20:58;17.10;99.90
28773;DHT22;15925;51.222;5.678;2023-07-20T05:23:24;17.00;99.90
28773;DHT22;15925;51.222;5.678;2023-07-20T05:25:55;16.90;99.90
28773;DHT22;15925;51.222;5.678;2023-07-20T05:28:22;17.00;99.90
28773;DHT22;15925;51.222;5.678;2023-07-20T05:30:48;17.00;99.90
28773;DHT22;15925;51.222;5.678;2023-07-20T05:33:14;16.90;99.90
28773;DHT22;15925;51.222;5.678;2023-07-20T05:35:40;17.00;99.90
28773;DHT22;15925;51.222;5.678;2023-07-20T05:38:06;16.90;99.90
28773;DHT22;15925;51.222;5.678;2023-07-20T05:40:32;17.10;99.90
28773;DHT22;15925;51.222;5.678;2023-07-20T05:42:58;17.20;99.90
28773;DHT22;15925;51.222;5.678;2023-07-20T05:45:24;17.30;99.90
28773;DHT22;15925;51.222;5.678;2023-07-20T05:47:50;17.20;99.90
28773;DHT22;15925;51.222;5.678;2023-07-20T05:50:16;17.10;99.90
28773;DHT22;15925;51.222;5.678;2023-07-20T05:52:42;17.20;99.90
28773;DHT22;15925;51.222;5.678;2023-07-20T05:55:08;17.10;99.90
28773;DHT22;15925;51.222;5.678;2023-07-20T05:57:35;17.00;99.90
28773;DHT22;15925;51.222;5.678;2023-07-20T06:00:01;17.10;99.90
28773;DHT22;15925;51.222;5.678;2023-07-20T06:02:40;17.00;99.90
28773;DHT22;15925;51.222;5.678;2023-07-20T06:05:07;17.10;99.90
28773;DHT22;15925;51.222;5.678;2023-07-20T06:07:39;17.20;99.90
28773;DHT22;15925;51.222;5.678;2023-07-20T06:10:06;17.20;99.90
28773;DHT22;15925;51.222;5.678;2023-07-20T06:12:32;17.40;99.90
28773;DHT22;15925;51.222;5.678;2023-07-20T06:15:02;17.40;99.90
28773;DHT22;15925;51.222;5.678;2023-07-20T06:17:29;17.30;99.90
28773;DHT22;15925;51.222;5.678;2023-07-20T06:19:55;17.40;99.90
28773;DHT22;15925;51.222;5.678;2023-07-20T06:22:21;17.50;99.90
28773;DHT22;15925;51.222;5.678;2023-07-20T06:24:46;17.40;99.90
28773;DHT22;15925;51.222;5.678;2023-07-20T06:27:12;17.30;99.90
28773;DHT22;15925;51.222;5.678;2023-07-20T06:29:38;17.40;99.90
28773;DHT22;15925;51.222;5.678;2023-07-20T06:32:05;17.40;99.90
28773;DHT22;15925;51.222;5.678;2023-07-20T06:34:31;17.50;99.90
28773;DHT22;15925;51.222;5.678;2023-07-20T06:36:57;17.40;99.90
28773;DHT22;15925;51.222;5.678;2023-07-20T06:39:22;17.40;99.90
28773;DHT22;15925;51.222;5.678;2023-07-20T06:41:48;17.50;99.90
28773;DHT22;15925;51.222;5.678;2023-07-20T06:44:14;17.60;99.90
28773;DHT22;15925;51.222;5.678;2023-07-20T06:46:40;17.70;99.90
28773;DHT22;15925;51.222;5.678;2023-07-20T06:49:06;17.70;99.90
28773;DHT22;15925;51.222;5.678;2023-07-20T06:51:33;17.80;99.90
28773;DHT22;15925;51.222;5.678;2023-07-20T06:53:59;17.90;99.90
28773;DHT22;15925;51.222;5.678;2023-07-20T06:56:25;17.90;99.90
28773;DHT22;15925;51.222;5.678;2023-07-20T06:58:50;17.90;99.90
28773;DHT22;15925;51.222;5.678;2023-07-20T07:01:16;18.00;99.90
28773;DHT22;15925;51.222;5.678;2023-07-20T07:03:42;18.00;99.90
28773;DHT22;15925;51.222;5.678;2023-07-20T07:06:09;18.10;99.90
28773;DHT22;15925;51.222;5.678;2023-07-20T07:08:35;18.00;99.90
28773;DHT22;15925;51.222;5.678;2023-07-20T07:11:01;18.10;99.90
28773;DHT22;15925;51.222;5.678;2023-07-20T07:13:27;18.10;99.90
28773;DHT22;15925;51.222;5.678;2023-07-20T07:15:53;18.20;99.90
28773;DHT22;15925;51.222;5.678;2023-07-20T07:18:19;18.30;99.90
28773;DHT22;15925;51.222;5.678;2023-07-20T07:20:52;18.20;99.90
28773;DHT22;15925;51.222;5.678;2023-07-20T07:23:19;18.00;99.90
28773;DHT22;15925;51.222;5.678;2023-07-20T07:25:45;18.00;99.90
28773;DHT22;15925;51.222;5.678;2023-07-20T07:28:11;18.00;99.90
28773;DHT22;15925;51.222;5.678;2023-07-20T07:30:36;18.10;99.90
28773;DHT22;15925;51.222;5.678;2023-07-20T07:33:03;18.30;99.90
28773;DHT22;15925;51.222;5.678;2023-07-20T07:35:29;18.40;99.90
28773;DHT22;15925;51.222;5.678;2023-07-20T07:37:55;18.40;99.90
28773;DHT22;15925;51.222;5.678;2023-07-20T07:40:21;18.40;99.90
28773;DHT22;15925;51.222;5.678;2023-07-20T07:42:46;18.50;99.90
28773;DHT22;15925;51.222;5.678;2023-07-20T07:45:13;18.60;99.90
28773;DHT22;15925;51.222;5.678;2023-07-20T07:47:39;18.60;99.90
28773;DHT22;15925;51.222;5.678;2023-07-20T07:50:05;18.70;99.90
28773;DHT22;15925;51.222;5.678;2023-07-20T07:52:31;18.80;99.90
28773;DHT22;15925;51.222;5.678;2023-07-20T07:54:57;18.90;99.90
28773;DHT22;15925;51.222;5.678;2023-07-20T07:57:24;19.00;99.90
28773;DHT22;15925;51.222;5.678;2023-07-20T07:59:50;19.10;99.90
28773;DHT22;15925;51.222;5.678;2023-07-20T08:02:15;19.20;99.90
28773;DHT22;15925;51.222;5.678;2023-07-20T08:04:41;19.30;99.90
28773;DHT22;15925;51.222;5.678;2023-07-20T08:07:07;19.40;99.90
28773;DHT22;15925;51.222;5.678;2023-07-20T08:09:33;19.50;99.90
28773;DHT22;15925;51.222;5.678;2023-07-20T08:11:59;19.50;99.90
28773;DHT22;15925;51.222;5.678;2023-07-20T08:14:25;19.50;99.90
28773;DHT22;15925;51.222;5.678;2023-07-20T08:16:51;19.60;99.90
28773;DHT22;15925;51.222;5.678;2023-07-20T08:19:17;19.70;99.90
28773;DHT22;15925;51.222;5.678;2023-07-20T08:21:43;19.80;99.90
28773;DHT22;15925;51.222;5.678;2023-07-20T08:24:08;19.80;99.90
28773;DHT22;15925;51.222;5.678;2023-07-20T08:26:34;19.80;99.90
28773;DHT22;15925;51.222;5.678;2023-07-20T08:29:00;19.70;99.90
28773;DHT22;15925;51.222;5.678;2023-07-20T08:31:26;19.70;99.90
28773;DHT22;15925;51.222;5.678;2023-07-20T08:33:53;19.60;99.90
28773;DHT22;15925;51.222;5.678;2023-07-20T08:36:19;19.70;99.90
28773;DHT22;15925;51.222;5.678;2023-07-20T08:38:45;19.70;99.90
28773;DHT22;15925;51.222;5.678;2023-07-20T08:41:11;19.60;99.90
28773;DHT22;15925;51.222;5.678;2023-07-20T08:43:37;19.70;99.90
28773;DHT22;15925;51.222;5.678;2023-07-20T08:46:05;19.90;99.90
28773;DHT22;15925;51.222;5.678;2023-07-20T08:48:31;20.00;99.90
28773;DHT22;15925;51.222;5.678;2023-07-20T08:50:58;20.10;99.90
28773;DHT22;15925;51.222;5.678;2023-07-20T08:53:27;20.20;99.90
28773;DHT22;15925;51.222;5.678;2023-07-20T08:55:53;20.30;99.90
28773;DHT22;15925;51.222;5.678;2023-07-20T08:58:20;20.30;99.90
28773;DHT22;15925;51.222;5.678;2023-07-20T09:00:45;20.40;99.90
28773;DHT22;15925;51.222;5.678;2023-07-20T09:03:12;20.30;99.90
28773;DHT22;15925;51.222;5.678;2023-07-20T09:05:38;20.30;99.90
28773;DHT22;15925;51.222;5.678;2023-07-20T09:08:06;20.20;99.90
28773;DHT22;15925;51.222;5.678;2023-07-20T09:10:32;20.20;99.90
28773;DHT22;15925;51.222;5.678;2023-07-20T09:12:58;20.20;99.90
28773;DHT22;15925;51.222;5.678;2023-07-20T09:15:24;20.30;99.90
28773;DHT22;15925;51.222;5.678;2023-07-20T09:17:51;20.50;99.90
28773;DHT22;15925;51.222;5.678;2023-07-20T09:20:19;20.60;99.90
28773;DHT22;15925;51.222;5.678;2023-07-20T09:22:46;20.70;99.90
28773;DHT22;15925;51.222;5.678;2023-07-20T09:25:17;20.80;99.90
28773;DHT22;15925;51.222;5.678;2023-07-20T09:27:45;20.80;99.90
28773;DHT22;15925;51.222;5.678;2023-07-20T09:30:11;20.90;99.90
28773;DHT22;15925;51.222;5.678;2023-07-20T09:32:46;21.00;99.90
28773;DHT22;15925;51.222;5.678;2023-07-20T09:35:19;21.10;99.90
28773;DHT22;15925;51.222;5.678;2023-07-20T09:38:01;21.20;99.90
28773;DHT22;15925;51.222;5.678;2023-07-20T09:40:28;21.20;99.90
28773;DHT22;15925;51.222;5.678;2023-07-20T09:42:54;20.80;99.90
28773;DHT22;15925;51.222;5.678;2023-07-20T09:45:57;20.80;99.90
28773;DHT22;15925;51.222;5.678;2023-07-20T09:48:24;20.90;99.90
28773;DHT22;15925;51.222;5.678;2023-07-20T09:50:51;21.10;99.90
28773;DHT22;15925;51.222;5.678;2023-07-20T09:53:17;21.20;99.90
28773;DHT22;15925;51.222;5.678;2023-07-20T09:55:47;21.40;99.90
28773;DHT22;15925;51.222;5.678;2023-07-20T09:58:13;21.50;99.90
28773;DHT22;15925;51.222;5.678;2023-07-20T10:00:41;21.70;99.90
28773;DHT22;15925;51.222;5.678;2023-07-20T10:03:16;21.70;99.90
28773;DHT22;15925;51.222;5.678;2023-07-20T10:05:48;21.80;99.90
28773;DHT22;15925;51.222;5.678;2023-07-20T10:08:16;21.90;99.90
28773;DHT22;15925;51.222;5.678;2023-07-20T10:10:42;22.00;99.90
28773;DHT22;15925;51.222;5.678;2023-07-20T10:13:13;22.00;99.90
28773;DHT22;15925;51.222;5.678;2023-07-20T10:15:47;21.90;99.90
28773;DHT22;15925;51.222;5.678;2023-07-20T10:18:29;22.00;99.90
28773;DHT22;15925;51.222;5.678;2023-07-20T10:20:55;21.90;99.90
28773;DHT22;15925;51.222;5.678;2023-07-20T10:23:22;22.10;99.90
28773;DHT22;15925;51.222;5.678;2023-07-20T10:25:49;22.10;99.90
28773;DHT22;15925;51.222;5.678;2023-07-20T10:28:15;22.20;99.90
28773;DHT22;15925;51.222;5.678;2023-07-20T10:30:42;22.10;99.90
28773;DHT22;15925;51.222;5.678;2023-07-20T10:33:08;22.30;99.90
28773;DHT22;15925;51.222;5.678;2023-07-20T10:35:54;22.40;99.90
28773;DHT22;15925;51.222;5.678;2023-07-20T10:38:37;22.50;99.90
28773;DHT22;15925;51.222;5.678;2023-07-20T10:41:03;22.50;99.90
28773;DHT22;15925;51.222;5.678;2023-07-20T10:43:29;22.60;99.90
28773;DHT22;15925;51.222;5.678;2023-07-20T10:45:57;22.70;99.90
28773;DHT22;15925;51.222;5.678;2023-07-20T10:48:24;22.80;99.90
28773;DHT22;15925;51.222;5.678;2023-07-20T10:51:10;22.70;99.90
28773;DHT22;15925;51.222;5.678;2023-07-20T10:53:36;22.40;99.90
28773;DHT22;15925;51.222;5.678;2023-07-20T10:56:12;22.50;99.90
28773;DHT22;15925;51.222;5.678;2023-07-20T10:58:40;22.60;99.90
28773;DHT22;15925;51.222;5.678;2023-07-20T11:01:07;22.60;99.90
28773;DHT22;15925;51.222;5.678;2023-07-20T11:03:35;22.70;99.90
28773;DHT22;15925;51.222;5.678;2023-07-20T11:11:31;22.50;99.90
28773;DHT22;15925;51.222;5.678;2023-07-20T11:14:05;22.50;99.90
28773;DHT22;15925;51.222;5.678;2023-07-20T11:19:03;22.70;99.90
28773;DHT22;15925;51.222;5.678;2023-07-20T11:21:34;22.90;99.90
28773;DHT22;15925;51.222;5.678;2023-07-20T11:24:03;23.00;99.90
28773;DHT22;15925;51.222;5.678;2023-07-20T11:26:29;23.10;99.90
28773;DHT22;15925;51.222;5.678;2023-07-20T11:28:54;23.20;99.90
28773;DHT22;15925;51.222;5.678;2023-07-20T11:31:20;23.00;99.90
28773;DHT22;15925;51.222;5.678;2023-07-20T11:33:46;23.10;99.90
28773;DHT22;15925;51.222;5.678;2023-07-20T11:36:13;23.30;99.90
28773;DHT22;15925;51.222;5.678;2023-07-20T11:38:42;23.40;99.90
28773;DHT22;15925;51.222;5.678;2023-07-20T11:41:10;23.20;99.90
28773;DHT22;15925;51.222;5.678;2023-07-20T11:43:37;23.20;99.90
28773;DHT22;15925;51.222;5.678;2023-07-20T11:46:05;23.40;99.90
28773;DHT22;15925;51.222;5.678;2023-07-20T11:48:31;23.50;99.90
28773;DHT22;15925;51.222;5.678;2023-07-20T11:50:56;23.60;99.90
28773;DHT22;15925;51.222;5.678;2023-07-20T11:53:24;23.60;99.90
28773;DHT22;15925;51.222;5.678;2023-07-20T11:55:51;23.40;99.90
28773;DHT22;15925;51.222;5.678;2023-07-20T11:58:17;23.40;99.90
28773;DHT22;15925;51.222;5.678;2023-07-20T12:00:44;23.30;99.90
28773;DHT22;15925;51.222;5.678;2023-07-20T12:03:11;23.40;99.90
28773;DHT22;15925;51.222;5.678;2023-07-20T12:05:41;23.50;99.90
28773;DHT22;15925;51.222;5.678;2023-07-20T12:08:07;23.40;99.90
28773;DHT22;15925;51.222;5.678;2023-07-20T12:10:33;23.30;99.90
28773;DHT22;15925;51.222;5.678;2023-07-20T12:13:03;23.50;99.90
28773;DHT22;15925;51.222;5.678;2023-07-20T12:15:29;23.60;99.90
28773;DHT22;15925;51.222;5.678;2023-07-20T12:17:56;23.70;99.90
28773;DHT22;15925;51.222;5.678;2023-07-20T12:20:35;23.60;99.50
28773;DHT22;15925;51.222;5.678;2023-07-20T12:23:04;23.80;99.90
28773;DHT22;15925;51.222;5.678;2023-07-20T12:25:40;23.90;99.90
28773;DHT22;15925;51.222;5.678;2023-07-20T12:28:17;24.00;99.90
28773;DHT22;15925;51.222;5.678;2023-07-20T12:30:44;24.10;99.90
28773;DHT22;15925;51.222;5.678;2023-07-20T12:33:10;24.10;99.90
28773;DHT22;15925;51.222;5.678;2023-07-20T12:35:38;24.10;99.90
28773;DHT22;15925;51.222;5.678;2023-07-20T12:38:04;24.10;99.80
28773;DHT22;15925;51.222;5.678;2023-07-20T12:40:30;24.10;99.70
28773;DHT22;15925;51.222;5.678;2023-07-20T12:42:57;24.20;99.70
28773;DHT22;15925;51.222;5.678;2023-07-20T12:45:24;24.10;99.60
28773;DHT22;15925;51.222;5.678;2023-07-20T12:47:49;24.00;99.60
28773;DHT22;15925;51.222;5.678;2023-07-20T12:50:15;24.10;99.50
28773;DHT22;15925;51.222;5.678;2023-07-20T12:52:41;24.10;99.30
28773;DHT22;15925;51.222;5.678;2023-07-20T12:55:08;24.20;99.10
28773;DHT22;15925;51.222;5.678;2023-07-20T12:57:35;24.10;99.20
28773;DHT22;15925;51.222;5.678;2023-07-20T13:00:10;24.10;99.10
28773;DHT22;15925;51.222;5.678;2023-07-20T13:02:38;24.20;98.90
28773;DHT22;15925;51.222;5.678;2023-07-20T13:05:04;24.10;98.90
28773;DHT22;15925;51.222;5.678;2023-07-20T13:09:58;23.80;98.90
28773;DHT22;15925;51.222;5.678;2023-07-20T13:12:28;23.90;98.70
28773;DHT22;15925;51.222;5.678;2023-07-20T13:14:55;23.90;98.60
28773;DHT22;15925;51.222;5.678;2023-07-20T13:17:25;23.90;98.60
28773;DHT22;15925;51.222;5.678;2023-07-20T13:19:50;23.80;98.60
28773;DHT22;15925;51.222;5.678;2023-07-20T13:22:16;23.90;98.60
28773;DHT22;15925;51.222;5.678;2023-07-20T13:24:44;23.80;98.50
28773;DHT22;15925;51.222;5.678;2023-07-20T13:27:12;23.80;98.40
28773;DHT22;15925;51.222;5.678;2023-07-20T13:29:37;23.80;98.40
28773;DHT22;15925;51.222;5.678;2023-07-20T13:32:03;24.00;98.50
28773;DHT22;15925;51.222;5.678;2023-07-20T13:34:31;24.10;98.30
28773;DHT22;15925;51.222;5.678;2023-07-20T13:36:57;24.20;98.20
28773;DHT22;15925;51.222;5.678;2023-07-20T13:39:23;24.20;98.00
28773;DHT22;15925;51.222;5.678;2023-07-20T13:41:51;24.20;98.00
28773;DHT22;15925;51.222;5.678;2023-07-20T13:44:17;24.10;97.90
28773;DHT22;15925;51.222;5.678;2023-07-20T13:46:43;23.90;97.90
28773;DHT22;15925;51.222;5.678;2023-07-20T13:49:09;23.90;98.10
28773;DHT22;15925;51.222;5.678;2023-07-20T13:51:34;24.10;98.00
28773;DHT22;15925;51.222;5.678;2023-07-20T13:54:00;24.20;97.90
28773;DHT22;15925;51.222;5.678;2023-07-20T13:56:27;24.40;97.80
28773;DHT22;15925;51.222;5.678;2023-07-20T13:58:52;24.40;97.70
28773;DHT22;15925;51.222;5.678;2023-07-20T14:01:18;24.40;96.60
28773;DHT22;15925;51.222;5.678;2023-07-20T14:03:44;24.40;97.60
28773;DHT22;15925;51.222;5.678;2023-07-20T14:06:10;24.40;97.50
28773;DHT22;15925;51.222;5.678;2023-07-20T14:08:38;24.20;97.50
28773;DHT22;15925;51.222;5.678;2023-07-20T14:11:04;24.30;97.50
28773;DHT22;15925;51.222;5.678;2023-07-20T14:13:30;24.40;97.30
28773;DHT22;15925;51.222;5.678;2023-07-20T14:15:57;24.30;97.20
28773;DHT22;15925;51.222;5.678;2023-07-20T14:18:23;24.10;97.20
28773;DHT22;15925;51.222;5.678;2023-07-20T14:20:49;24.20;97.30
28773;DHT22;15925;51.222;5.678;2023-07-20T14:23:15;24.20;97.10
28773;DHT22;15925;51.222;5.678;2023-07-20T14:25:41;23.90;97.00
28773;DHT22;15925;51.222;5.678;2023-07-20T14:28:07;24.10;97.20
28773;DHT22;15925;51.222;5.678;2023-07-20T14:30:33;24.10;96.70
28773;DHT22;15925;51.222;5.678;2023-07-20T14:32:59;24.30;96.70
28773;DHT22;15925;51.222;5.678;2023-07-20T14:35:26;24.40;96.50
28773;DHT22;15925;51.222;5.678;2023-07-20T14:37:51;24.50;96.40
28773;DHT22;15925;51.222;5.678;2023-07-20T14:40:18;24.60;96.30
28773;DHT22;15925;51.222;5.678;2023-07-20T14:42:44;24.70;96.30
28773;DHT22;15925;51.222;5.678;2023-07-20T14:45:10;24.70;96.20
28773;DHT22;15925;51.222;5.678;2023-07-20T14:47:36;24.40;96.60
28773;DHT22;15925;51.222;5.678;2023-07-20T14:50:02;24.30;96.50
28773;DHT22;15925;51.222;5.678;2023-07-20T14:52:28;24.00;96.50
28773;DHT22;15925;51.222;5.678;2023-07-20T14:54:54;23.90;96.60
28773;DHT22;15925;51.222;5.678;2023-07-20T14:57:20;23.90;96.70
28773;DHT22;15925;51.222;5.678;2023-07-20T14:59:49;23.60;96.60
28773;DHT22;15925;51.222;5.678;2023-07-20T15:02:15;23.60;96.90
28773;DHT22;15925;51.222;5.678;2023-07-20T15:04:48;23.60;95.60
28773;DHT22;15925;51.222;5.678;2023-07-20T15:07:23;23.80;96.60
28773;DHT22;15925;51.222;5.678;2023-07-20T15:09:49;23.80;96.30
28773;DHT22;15925;51.222;5.678;2023-07-20T15:12:15;23.80;96.50
28773;DHT22;15925;51.222;5.678;2023-07-20T15:14:42;23.60;96.70
28773;DHT22;15925;51.222;5.678;2023-07-20T15:17:11;23.60;96.70
28773;DHT22;15925;51.222;5.678;2023-07-20T15:19:38;23.70;96.50
28773;DHT22;15925;51.222;5.678;2023-07-20T15:22:04;23.70;96.80
28773;DHT22;15925;51.222;5.678;2023-07-20T15:24:32;23.70;96.40
28773;DHT22;15925;51.222;5.678;2023-07-20T15:26:58;23.70;96.40
28773;DHT22;15925;51.222;5.678;2023-07-20T15:29:25;23.60;96.50
28773;DHT22;15925;51.222;5.678;2023-07-20T15:31:50;23.50;96.60
28773;DHT22;15925;51.222;5.678;2023-07-20T15:34:16;23.40;96.60
28773;DHT22;15925;51.222;5.678;2023-07-20T15:36:42;23.60;96.40
28773;DHT22;15925;51.222;5.678;2023-07-20T15:39:08;23.60;96.40
28773;DHT22;15925;51.222;5.678;2023-07-20T15:41:34;23.40;96.60
28773;DHT22;15925;51.222;5.678;2023-07-20T15:44:00;23.40;96.60
28773;DHT22;15925;51.222;5.678;2023-07-20T15:49:04;23.30;96.80
28773;DHT22;15925;51.222;5.678;2023-07-20T15:51:30;23.40;96.90
28773;DHT22;15925;51.222;5.678;2023-07-20T15:53:55;23.50;96.90
28773;DHT22;15925;51.222;5.678;2023-07-20T15:56:21;23.50;96.90